sensor_id;sensor_type;location;lat;lon;timestamp;temperature;humidity
2611;DHT22;5612;51.134;17.058;2023-05-10T00:01:55;10.60;1.00
2611;DHT22;5612;51.134;17.058;2023-05-10T00:04:26;10.60;1.00
2611;DHT22;5612;51.134;17.058;2023-05-10T00:06:56;10.50;1.00
2611;DHT22;5612;51.134;17.058;2023-05-10T00:09:26;10.40;1.00
2611;DHT22;5612;51.134;17.058;2023-05-10T00:11:56;10.40;1.00
2611;DHT22;5612;51.134;17.058;2023-05-10T00:14:26;10.30;1.00
2611;DHT22;5612;51.134;17.058;2023-05-10T00:16:56;10.30;1.00
2611;DHT22;5612;51.134;17.058;2023-05-10T00:19:27;10.30;1.00
2611;DHT22;5612;51.134;17.058;2023-05-10T00:21:57;10.30;1.00
2611;DHT22;5612;51.134;17.058;2023-05-10T00:24:27;10.20;1.00
2611;DHT22;5612;51.134;17.058;2023-05-10T00:26:56;10.10;1.00
2611;DHT22;5612;51.134;17.058;2023-05-10T00:29:26;10.10;1.00
2611;DHT22;5612;51.134;17.058;2023-05-10T00:31:56;10.00;1.00
2611;DHT22;5612;51.134;17.058;2023-05-10T00:34:28;10.00;1.00
2611;DHT22;5612;51.134;17.058;2023-05-10T00:36:58;10.00;1.00
2611;DHT22;5612;51.134;17.058;2023-05-10T00:39:28;10.00;1.00
2611;DHT22;5612;51.134;17.058;2023-05-10T00:41:58;9.90;1.00
2611;DHT22;5612;51.134;17.058;2023-05-10T00:44:28;9.80;1.00
2611;DHT22;5612;51.134;17.058;2023-05-10T00:46:59;9.80;1.00
2611;DHT22;5612;51.134;17.058;2023-05-10T00:49:31;9.80;1.00
2611;DHT22;5612;51.134;17.058;2023-05-10T00:52:01;9.70;1.00
2611;DHT22;5612;51.134;17.058;2023-05-10T00:54:32;9.70;1.00
2611;DHT22;5612;51.134;17.058;2023-05-10T00:57:02;9.70;1.00
2611;DHT22;5612;51.134;17.058;2023-05-10T00:59:32;9.70;1.00
2611;DHT22;5612;51.134;17.058;2023-05-10T01:02:03;9.60;1.00
2611;DHT22;5612;51.134;17.058;2023-05-10T01:04:35;9.60;1.00
2611;DHT22;5612;51.134;17.058;2023-05-10T01:07:05;9.60;1.00
2611;DHT22;5612;51.134;17.058;2023-05-10T01:09:35;9.50;1.00
2611;DHT22;5612;51.134;17.058;2023-05-10T01:12:06;9.40;1.00
2611;DHT22;5612;51.134;17.058;2023-05-10T01:14:36;9.40;1.00
2611;DHT22;5612;51.134;17.058;2023-05-10T01:17:06;9.30;1.00
2611;DHT22;5612;51.134;17.058;2023-05-10T01:19:39;9.30;1.00
2611;DHT22;5612;51.134;17.058;2023-05-10T01:22:20;9.40;1.00
2611;DHT22;5612;51.134;17.058;2023-05-10T01:25:08;9.40;1.00
2611;DHT22;5612;51.134;17.058;2023-05-10T01:27:53;9.30;1.00
2611;DHT22;5612;51.134;17.058;2023-05-10T01:30:50;9.20;1.00
2611;DHT22;5612;51.134;17.058;2023-05-10T01:33:27;9.10;1.00
2611;DHT22;5612;51.134;17.058;2023-05-10T01:36:03;9.10;1.00
2611;DHT22;5612;51.134;17.058;2023-05-10T01:38:42;9.10;1.00
2611;DHT22;5612;51.134;17.058;2023-05-10T01:41:16;9.10;1.00
2611;DHT22;5612;51.134;17.058;2023-05-10T01:43:53;9.00;1.00
2611;DHT22;5612;51.134;17.058;2023-05-10T01:46:28;9.10;1.00
2611;DHT22;5612;51.134;17.058;2023-05-10T01:49:03;9.10;1.00
2611;DHT22;5612;51.134;17.058;2023-05-10T01:51:39;9.10;4.90
2611;DHT22;5612;51.134;17.058;2023-05-10T01:54:13;9.00;1.00
2611;DHT22;5612;51.134;17.058;2023-05-10T01:56:44;9.00;1.00
2611;DHT22;5612;51.134;17.058;2023-05-10T01:59:18;9.00;13.60
2611;DHT22;5612;51.134;17.058;2023-05-10T02:01:50;8.90;3.00
2611;DHT22;5612;51.134;17.058;2023-05-10T02:04:22;8.90;16.70
2611;DHT22;5612;51.134;17.058;2023-05-10T02:06:54;8.90;30.00
2611;DHT22;5612;51.134;17.058;2023-05-10T02:09:26;8.80;39.60
2611;DHT22;5612;51.134;17.058;2023-05-10T02:11:58;8.70;34.30
2611;DHT22;5612;51.134;17.058;2023-05-10T02:14:29;8.60;76.90
2611;DHT22;5612;51.134;17.058;2023-05-10T02:17:00;8.70;93.30
2611;DHT22;5612;51.134;17.058;2023-05-10T02:19:33;8.70;92.80
2611;DHT22;5612;51.134;17.058;2023-05-10T02:22:05;8.60;98.00
2611;DHT22;5612;51.134;17.058;2023-05-10T02:24:37;8.60;81.70
2611;DHT22;5612;51.134;17.058;2023-05-10T02:27:09;8.60;94.40
2611;DHT22;5612;51.134;17.058;2023-05-10T02:29:39;8.50;99.10
2611;DHT22;5612;51.134;17.058;2023-05-10T02:32:10;8.50;90.70
2611;DHT22;5612;51.134;17.058;2023-05-10T02:34:42;8.50;99.90
2611;DHT22;5612;51.134;17.058;2023-05-10T02:37:14;8.50;99.90
2611;DHT22;5612;51.134;17.058;2023-05-10T02:39:47;8.50;99.90
2611;DHT22;5612;51.134;17.058;2023-05-10T02:42:18;8.50;95.60
2611;DHT22;5612;51.134;17.058;2023-05-10T02:44:50;8.50;99.90
2611;DHT22;5612;51.134;17.058;2023-05-10T02:47:21;8.50;99.90
2611;DHT22;5612;51.134;17.058;2023-05-10T02:49:53;8.50;99.90
2611;DHT22;5612;51.134;17.058;2023-05-10T02:52:25;8.40;99.90
2611;DHT22;5612;51.134;17.058;2023-05-10T02:54:56;8.50;99.90
2611;DHT22;5612;51.134;17.058;2023-05-10T02:57:30;8.40;99.90
2611;DHT22;5612;51.134;17.058;2023-05-10T03:00:02;8.30;99.90
2611;DHT22;5612;51.134;17.058;2023-05-10T03:02:31;8.40;99.90
2611;DHT22;5612;51.134;17.058;2023-05-10T03:05:03;8.40;99.90
2611;DHT22;5612;51.134;17.058;2023-05-10T03:07:33;8.40;99.90
2611;DHT22;5612;51.134;17.058;2023-05-10T03:10:04;8.40;99.90
2611;DHT22;5612;51.134;17.058;2023-05-10T03:12:46;8.40;99.90
2611;DHT22;5612;51.134;17.058;2023-05-10T03:15:22;8.30;99.90
2611;DHT22;5612;51.134;17.058;2023-05-10T03:18:02;8.30;99.90
2611;DHT22;5612;51.134;17.058;2023-05-10T03:20:38;8.40;99.90
2611;DHT22;5612;51.134;17.058;2023-05-10T03:23:17;8.40;99.90
2611;DHT22;5612;51.134;17.058;2023-05-10T03:25:50;8.40;99.90
2611;DHT22;5612;51.134;17.058;2023-05-10T03:28:21;8.40;99.90
2611;DHT22;5612;51.134;17.058;2023-05-10T03:30:52;8.40;99.90
2611;DHT22;5612;51.134;17.058;2023-05-10T03:33:23;8.40;99.90
2611;DHT22;5612;51.134;17.058;2023-05-10T03:35:54;8.40;99.90
2611;DHT22;5612;51.134;17.058;2023-05-10T03:38:24;8.40;99.90
2611;DHT22;5612;51.134;17.058;2023-05-10T03:40:56;8.40;99.90
2611;DHT22;5612;51.134;17.058;2023-05-10T03:43:26;8.40;99.90
2611;DHT22;5612;51.134;17.058;2023-05-10T03:45:55;8.50;99.90
2611;DHT22;5612;51.134;17.058;2023-05-10T03:48:25;8.50;99.90
2611;DHT22;5612;51.134;17.058;2023-05-10T03:50:56;8.50;99.90
2611;DHT22;5612;51.134;17.058;2023-05-10T03:53:25;8.60;99.90
2611;DHT22;5612;51.134;17.058;2023-05-10T03:55:55;8.60;99.90
2611;DHT22;5612;51.134;17.058;2023-05-10T03:58:25;8.50;99.90
2611;DHT22;5612;51.134;17.058;2023-05-10T04:00:54;8.50;99.50
2611;DHT22;5612;51.134;17.058;2023-05-10T04:03:24;8.60;99.90
2611;DHT22;5612;51.134;17.058;2023-05-10T04:06:01;8.60;70.90
2611;DHT22;5612;51.134;17.058;2023-05-10T04:08:30;8.70;50.90
2611;DHT22;5612;51.134;17.058;2023-05-10T04:11:07;8.70;60.70
2611;DHT22;5612;51.134;17.058;2023-05-10T04:13:36;8.70;28.40
2611;DHT22;5612;51.134;17.058;2023-05-10T04:16:06;8.80;23.00
2611;DHT22;5612;51.134;17.058;2023-05-10T04:18:36;8.90;14.00
2611;DHT22;5612;51.134;17.058;2023-05-10T04:21:11;9.00;1.00
2611;DHT22;5612;51.134;17.058;2023-05-10T04:23:41;9.10;1.00
2611;DHT22;5612;51.134;17.058;2023-05-10T04:26:11;9.10;1.00
2611;DHT22;5612;51.134;17.058;2023-05-10T04:28:41;9.20;1.00
2611;DHT22;5612;51.134;17.058;2023-05-10T04:31:10;9.40;1.00
2611;DHT22;5612;51.134;17.058;2023-05-10T04:33:40;9.50;1.00
2611;DHT22;5612;51.134;17.058;2023-05-10T04:36:11;9.50;1.00
2611;DHT22;5612;51.134;17.058;2023-05-10T04:38:41;9.50;1.00
2611;DHT22;5612;51.134;17.058;2023-05-10T04:41:11;9.50;1.00
2611;DHT22;5612;51.134;17.058;2023-05-10T04:43:41;9.60;1.00
2611;DHT22;5612;51.134;17.058;2023-05-10T04:46:10;9.80;1.00
2611;DHT22;5612;51.134;17.058;2023-05-10T04:48:40;9.80;1.00
2611;DHT22;5612;51.134;17.058;2023-05-10T04:51:11;9.90;1.00
2611;DHT22;5612;51.134;17.058;2023-05-10T04:53:41;10.00;1.00
2611;DHT22;5612;51.134;17.058;2023-05-10T04:56:24;10.00;1.00
2611;DHT22;5612;51.134;17.058;2023-05-10T04:58:53;10.10;1.00
2611;DHT22;5612;51.134;17.058;2023-05-10T05:01:23;10.10;1.00
2611;DHT22;5612;51.134;17.058;2023-05-10T05:03:53;10.20;1.00
2611;DHT22;5612;51.134;17.058;2023-05-10T05:06:24;10.40;1.00
2611;DHT22;5612;51.134;17.058;2023-05-10T05:08:55;10.40;1.00
2611;DHT22;5612;51.134;17.058;2023-05-10T05:11:25;10.50;1.00
2611;DHT22;5612;51.134;17.058;2023-05-10T05:13:54;10.50;1.00
2611;DHT22;5612;51.134;17.058;2023-05-10T05:16:24;10.60;1.00
2611;DHT22;5612;51.134;17.058;2023-05-10T05:18:54;10.70;1.00
2611;DHT22;5612;51.134;17.058;2023-05-10T05:21:25;10.70;1.00
2611;DHT22;5612;51.134;17.058;2023-05-10T05:23:55;10.80;1.00
2611;DHT22;5612;51.134;17.058;2023-05-10T05:26:24;10.90;1.00
2611;DHT22;5612;51.134;17.058;2023-05-10T05:28:53;11.10;1.00
2611;DHT22;5612;51.134;17.058;2023-05-10T05:31:23;11.10;1.00
2611;DHT22;5612;51.134;17.058;2023-05-10T05:33:52;11.10;1.00
2611;DHT22;5612;51.134;17.058;2023-05-10T05:36:22;11.10;1.00
2611;DHT22;5612;51.134;17.058;2023-05-10T05:38:53;11.20;1.00
2611;DHT22;5612;51.134;17.058;2023-05-10T05:41:22;11.30;1.00
2611;DHT22;5612;51.134;17.058;2023-05-10T05:43:53;11.40;1.00
2611;DHT22;5612;51.134;17.058;2023-05-10T05:46:24;11.40;1.00
2611;DHT22;5612;51.134;17.058;2023-05-10T05:48:54;11.50;1.00
2611;DHT22;5612;51.134;17.058;2023-05-10T05:51:24;11.60;1.00
2611;DHT22;5612;51.134;17.058;2023-05-10T05:53:56;11.60;1.00
2611;DHT22;5612;51.134;17.058;2023-05-10T05:56:26;11.70;1.00
2611;DHT22;5612;51.134;17.058;2023-05-10T05:58:56;11.80;1.00
2611;DHT22;5612;51.134;17.058;2023-05-10T06:01:25;12.00;1.00
2611;DHT22;5612;51.134;17.058;2023-05-10T06:03:55;12.10;1.00
2611;DHT22;5612;51.134;17.058;2023-05-10T06:06:28;12.00;1.00
2611;DHT22;5612;51.134;17.058;2023-05-10T06:08:59;12.20;1.00
2611;DHT22;5612;51.134;17.058;2023-05-10T06:11:31;12.40;1.00
2611;DHT22;5612;51.134;17.058;2023-05-10T06:14:01;12.50;1.00
2611;DHT22;5612;51.134;17.058;2023-05-10T06:16:31;12.70;1.00
2611;DHT22;5612;51.134;17.058;2023-05-10T06:19:02;12.90;1.00
2611;DHT22;5612;51.134;17.058;2023-05-10T06:21:35;13.20;1.00
2611;DHT22;5612;51.134;17.058;2023-05-10T06:24:07;13.40;1.00
2611;DHT22;5612;51.134;17.058;2023-05-10T06:26:37;13.80;1.00
2611;DHT22;5612;51.134;17.058;2023-05-10T06:29:07;14.40;1.00
2611;DHT22;5612;51.134;17.058;2023-05-10T06:31:37;14.90;1.00
2611;DHT22;5612;51.134;17.058;2023-05-10T06:34:07;15.50;1.00
2611;DHT22;5612;51.134;17.058;2023-05-10T06:36:36;16.10;1.00
2611;DHT22;5612;51.134;17.058;2023-05-10T06:39:07;16.50;1.00
2611;DHT22;5612;51.134;17.058;2023-05-10T06:41:39;16.90;1.00
2611;DHT22;5612;51.134;17.058;2023-05-10T06:44:09;17.10;1.00
2611;DHT22;5612;51.134;17.058;2023-05-10T06:46:38;17.10;1.00
2611;DHT22;5612;51.134;17.058;2023-05-10T06:49:08;17.30;1.00
2611;DHT22;5612;51.134;17.058;2023-05-10T06:51:37;17.60;1.00
2611;DHT22;5612;51.134;17.058;2023-05-10T06:54:10;18.10;1.00
2611;DHT22;5612;51.134;17.058;2023-05-10T06:56:40;18.40;1.00
2611;DHT22;5612;51.134;17.058;2023-05-10T06:59:11;18.70;1.00
2611;DHT22;5612;51.134;17.058;2023-05-10T07:01:41;18.80;1.00
2611;DHT22;5612;51.134;17.058;2023-05-10T07:04:11;19.00;1.00
2611;DHT22;5612;51.134;17.058;2023-05-10T07:06:41;19.30;1.00
2611;DHT22;5612;51.134;17.058;2023-05-10T07:09:13;19.50;1.00
2611;DHT22;5612;51.134;17.058;2023-05-10T07:11:43;20.10;1.00
2611;DHT22;5612;51.134;17.058;2023-05-10T07:14:16;20.40;1.00
2611;DHT22;5612;51.134;17.058;2023-05-10T07:16:46;20.60;1.00
2611;DHT22;5612;51.134;17.058;2023-05-10T07:19:17;20.60;1.00
2611;DHT22;5612;51.134;17.058;2023-05-10T07:21:46;21.00;1.00
2611;DHT22;5612;51.134;17.058;2023-05-10T07:24:22;20.70;1.00
2611;DHT22;5612;51.134;17.058;2023-05-10T07:26:55;20.60;1.00
2611;DHT22;5612;51.134;17.058;2023-05-10T07:29:24;20.80;1.00
2611;DHT22;5612;51.134;17.058;2023-05-10T07:31:54;21.00;1.00
2611;DHT22;5612;51.134;17.058;2023-05-10T07:34:26;21.40;1.00
2611;DHT22;5612;51.134;17.058;2023-05-10T07:36:57;22.10;1.00
2611;DHT22;5612;51.134;17.058;2023-05-10T07:39:28;22.60;1.00
2611;DHT22;5612;51.134;17.058;2023-05-10T07:41:58;23.00;1.00
2611;DHT22;5612;51.134;17.058;2023-05-10T07:44:27;23.30;1.00
2611;DHT22;5612;51.134;17.058;2023-05-10T07:46:57;23.50;1.00
2611;DHT22;5612;51.134;17.058;2023-05-10T07:49:27;23.90;1.00
2611;DHT22;5612;51.134;17.058;2023-05-10T07:51:57;24.10;1.00
2611;DHT22;5612;51.134;17.058;2023-05-10T07:54:28;24.90;1.00
2611;DHT22;5612;51.134;17.058;2023-05-10T07:56:57;24.70;1.00
2611;DHT22;5612;51.134;17.058;2023-05-10T07:59:27;25.10;1.00
2611;DHT22;5612;51.134;17.058;2023-05-10T08:01:57;24.90;1.00
2611;DHT22;5612;51.134;17.058;2023-05-10T08:04:26;24.50;1.00
2611;DHT22;5612;51.134;17.058;2023-05-10T08:06:56;25.20;1.00
2611;DHT22;5612;51.134;17.058;2023-05-10T08:09:27;25.70;1.00
2611;DHT22;5612;51.134;17.058;2023-05-10T08:11:56;25.50;1.00
2611;DHT22;5612;51.134;17.058;2023-05-10T08:14:29;25.80;1.00
2611;DHT22;5612;51.134;17.058;2023-05-10T08:16:58;27.00;1.00
2611;DHT22;5612;51.134;17.058;2023-05-10T08:19:27;27.80;1.00
2611;DHT22;5612;51.134;17.058;2023-05-10T08:21:56;27.60;1.00
2611;DHT22;5612;51.134;17.058;2023-05-10T08:24:25;27.10;1.00
2611;DHT22;5612;51.134;17.058;2023-05-10T08:30:28;25.20;1.00
2611;DHT22;5612;51.134;17.058;2023-05-10T08:32:57;25.20;1.00
2611;DHT22;5612;51.134;17.058;2023-05-10T08:35:27;26.60;1.00
2611;DHT22;5612;51.134;17.058;2023-05-10T08:37:56;26.90;1.00
2611;DHT22;5612;51.134;17.058;2023-05-10T08:40:26;26.90;1.00
2611;DHT22;5612;51.134;17.058;2023-05-10T08:43:00;26.30;1.00
2611;DHT22;5612;51.134;17.058;2023-05-10T08:45:38;26.80;1.00
2611;DHT22;5612;51.134;17.058;2023-05-10T08:48:09;27.30;1.00
2611;DHT22;5612;51.134;17.058;2023-05-10T08:50:39;27.70;1.00
2611;DHT22;5612;51.134;17.058;2023-05-10T08:53:10;28.10;1.00
2611;DHT22;5612;51.134;17.058;2023-05-10T08:55:41;28.80;1.00
2611;DHT22;5612;51.134;17.058;2023-05-10T08:58:10;28.00;1.00
2611;DHT22;5612;51.134;17.058;2023-05-10T09:00:40;27.90;1.00
2611;DHT22;5612;51.134;17.058;2023-05-10T09:03:10;27.90;1.00
2611;DHT22;5612;51.134;17.058;2023-05-10T09:05:39;28.90;1.00
2611;DHT22;5612;51.134;17.058;2023-05-10T09:08:08;29.30;1.00
2611;DHT22;5612;51.134;17.058;2023-05-10T09:10:38;29.30;1.00
2611;DHT22;5612;51.134;17.058;2023-05-10T09:13:09;28.20;1.00
2611;DHT22;5612;51.134;17.058;2023-05-10T09:15:40;28.40;1.00
2611;DHT22;5612;51.134;17.058;2023-05-10T09:18:09;29.20;1.00
2611;DHT22;5612;51.134;17.058;2023-05-10T09:20:38;29.50;1.00
2611;DHT22;5612;51.134;17.058;2023-05-10T09:23:07;29.60;1.00
2611;DHT22;5612;51.134;17.058;2023-05-10T09:25:36;30.40;1.00
2611;DHT22;5612;51.134;17.058;2023-05-10T09:28:07;31.50;1.00
2611;DHT22;5612;51.134;17.058;2023-05-10T09:30:37;30.80;1.00
2611;DHT22;5612;51.134;17.058;2023-05-10T09:33:07;29.90;1.00
2611;DHT22;5612;51.134;17.058;2023-05-10T09:35:37;30.10;1.00
2611;DHT22;5612;51.134;17.058;2023-05-10T09:38:07;30.50;1.00
2611;DHT22;5612;51.134;17.058;2023-05-10T09:40:38;30.30;1.00
2611;DHT22;5612;51.134;17.058;2023-05-10T09:43:07;30.10;1.00
2611;DHT22;5612;51.134;17.058;2023-05-10T09:45:38;30.30;1.00
2611;DHT22;5612;51.134;17.058;2023-05-10T09:48:08;30.50;1.00
2611;DHT22;5612;51.134;17.058;2023-05-10T09:50:37;30.90;1.00
2611;DHT22;5612;51.134;17.058;2023-05-10T09:53:06;29.70;1.00
2611;DHT22;5612;51.134;17.058;2023-05-10T09:55:45;29.70;1.00
2611;DHT22;5612;51.134;17.058;2023-05-10T09:58:14;29.80;1.00
2611;DHT22;5612;51.134;17.058;2023-05-10T10:00:44;30.50;1.00
2611;DHT22;5612;51.134;17.058;2023-05-10T10:03:19;31.60;1.00
2611;DHT22;5612;51.134;17.058;2023-05-10T10:05:49;31.20;1.00
2611;DHT22;5612;51.134;17.058;2023-05-10T10:08:20;30.40;1.00
2611;DHT22;5612;51.134;17.058;2023-05-10T10:10:49;30.80;1.00
2611;DHT22;5612;51.134;17.058;2023-05-10T10:13:18;31.90;1.00
2611;DHT22;5612;51.134;17.058;2023-05-10T10:15:47;33.00;1.00
2611;DHT22;5612;51.134;17.058;2023-05-10T10:18:20;33.40;1.00
2611;DHT22;5612;51.134;17.058;2023-05-10T10:20:54;33.70;1.00
2611;DHT22;5612;51.134;17.058;2023-05-10T10:23:24;34.10;1.00
2611;DHT22;5612;51.134;17.058;2023-05-10T10:25:54;33.90;1.00
2611;DHT22;5612;51.134;17.058;2023-05-10T10:28:38;33.60;1.00
2611;DHT22;5612;51.134;17.058;2023-05-10T10:31:29;33.60;1.00
2611;DHT22;5612;51.134;17.058;2023-05-10T10:34:05;32.40;1.00
2611;DHT22;5612;51.134;17.058;2023-05-10T10:36:40;31.50;1.00
2611;DHT22;5612;51.134;17.058;2023-05-10T10:39:11;31.40;1.00
2611;DHT22;5612;51.134;17.058;2023-05-10T10:41:48;31.70;1.00
2611;DHT22;5612;51.134;17.058;2023-05-10T10:44:25;31.50;1.00
2611;DHT22;5612;51.134;17.058;2023-05-10T10:47:02;31.90;1.00
2611;DHT22;5612;51.134;17.058;2023-05-10T10:49:38;32.30;1.00
2611;DHT22;5612;51.134;17.058;2023-05-10T10:52:14;32.70;1.00
2611;DHT22;5612;51.134;17.058;2023-05-10T10:54:50;32.40;1.00
2611;DHT22;5612;51.134;17.058;2023-05-10T10:57:20;33.30;1.00
2611;DHT22;5612;51.134;17.058;2023-05-10T10:59:49;34.10;1.00
2611;DHT22;5612;51.134;17.058;2023-05-10T11:02:36;33.90;1.00
2611;DHT22;5612;51.134;17.058;2023-05-10T11:08:19;33.00;1.00
2611;DHT22;5612;51.134;17.058;2023-05-10T11:11:02;33.50;1.00
2611;DHT22;5612;51.134;17.058;2023-05-10T11:13:37;34.20;1.00
2611;DHT22;5612;51.134;17.058;2023-05-10T11:16:17;33.00;1.00
2611;DHT22;5612;51.134;17.058;2023-05-10T11:18:53;33.30;1.00
2611;DHT22;5612;51.134;17.058;2023-05-10T11:21:24;32.70;1.00
2611;DHT22;5612;51.134;17.058;2023-05-10T11:23:54;32.00;1.00
2611;DHT22;5612;51.134;17.058;2023-05-10T11:26:25;32.20;1.00
2611;DHT22;5612;51.134;17.058;2023-05-10T11:28:55;32.50;1.00
2611;DHT22;5612;51.134;17.058;2023-05-10T11:31:25;32.90;1.00
2611;DHT22;5612;51.134;17.058;2023-05-10T11:33:55;34.20;1.00
2611;DHT22;5612;51.134;17.058;2023-05-10T11:36:27;33.80;1.00
2611;DHT22;5612;51.134;17.058;2023-05-10T11:38:57;33.60;1.00
2611;DHT22;5612;51.134;17.058;2023-05-10T11:41:27;33.40;1.00
2611;DHT22;5612;51.134;17.058;2023-05-10T11:43:57;34.00;1.00
2611;DHT22;5612;51.134;17.058;2023-05-10T11:46:27;34.10;1.00
2611;DHT22;5612;51.134;17.058;2023-05-10T11:48:59;33.20;1.00
2611;DHT22;5612;51.134;17.058;2023-05-10T11:51:35;31.50;1.00
2611;DHT22;5612;51.134;17.058;2023-05-10T11:54:06;30.40;1.00
2611;DHT22;5612;51.134;17.058;2023-05-10T11:56:37;29.20;1.00
2611;DHT22;5612;51.134;17.058;2023-05-10T11:59:06;29.30;1.00
2611;DHT22;5612;51.134;17.058;2023-05-10T12:01:35;28.90;1.00
2611;DHT22;5612;51.134;17.058;2023-05-10T12:04:04;29.40;1.00
2611;DHT22;5612;51.134;17.058;2023-05-10T12:06:39;30.70;1.00
2611;DHT22;5612;51.134;17.058;2023-05-10T12:09:10;31.20;1.00
2611;DHT22;5612;51.134;17.058;2023-05-10T12:11:40;30.90;1.00
2611;DHT22;5612;51.134;17.058;2023-05-10T12:14:11;31.70;1.00
2611;DHT22;5612;51.134;17.058;2023-05-10T12:16:44;31.10;1.00
2611;DHT22;5612;51.134;17.058;2023-05-10T12:19:19;29.90;1.00
2611;DHT22;5612;51.134;17.058;2023-05-10T12:21:51;28.70;1.00
2611;DHT22;5612;51.134;17.058;2023-05-10T12:24:24;28.40;1.00
2611;DHT22;5612;51.134;17.058;2023-05-10T12:26:54;29.10;1.00
2611;DHT22;5612;51.134;17.058;2023-05-10T12:29:43;29.20;1.00
2611;DHT22;5612;51.134;17.058;2023-05-10T12:32:13;28.80;1.00
2611;DHT22;5612;51.134;17.058;2023-05-10T12:34:42;27.20;1.00
2611;DHT22;5612;51.134;17.058;2023-05-10T12:37:12;27.10;1.00
2611;DHT22;5612;51.134;17.058;2023-05-10T12:39:42;27.70;1.00
2611;DHT22;5612;51.134;17.058;2023-05-10T12:42:11;26.90;1.00
2611;DHT22;5612;51.134;17.058;2023-05-10T12:44:40;25.50;1.00
2611;DHT22;5612;51.134;17.058;2023-05-10T12:47:08;25.20;1.00
2611;DHT22;5612;51.134;17.058;2023-05-10T12:49:38;25.40;1.00
2611;DHT22;5612;51.134;17.058;2023-05-10T12:52:06;25.90;1.00
2611;DHT22;5612;51.134;17.058;2023-05-10T12:54:37;25.60;1.00
2611;DHT22;5612;51.134;17.058;2023-05-10T12:57:05;25.40;1.00
2611;DHT22;5612;51.134;17.058;2023-05-10T12:59:34;24.70;1.00
2611;DHT22;5612;51.134;17.058;2023-05-10T13:02:04;25.10;1.00
2611;DHT22;5612;51.134;17.058;2023-05-10T13:04:33;25.80;1.00
2611;DHT22;5612;51.134;17.058;2023-05-10T13:07:02;26.00;1.00
2611;DHT22;5612;51.134;17.058;2023-05-10T13:09:31;25.90;1.00
2611;DHT22;5612;51.134;17.058;2023-05-10T13:12:02;26.40;1.00
2611;DHT22;5612;51.134;17.058;2023-05-10T13:14:35;26.10;1.00
2611;DHT22;5612;51.134;17.058;2023-05-10T13:17:04;25.40;1.00
2611;DHT22;5612;51.134;17.058;2023-05-10T13:19:33;24.70;1.00
2611;DHT22;5612;51.134;17.058;2023-05-10T13:22:04;24.30;1.00
2611;DHT22;5612;51.134;17.058;2023-05-10T13:24:33;24.70;1.00
2611;DHT22;5612;51.134;17.058;2023-05-10T13:27:14;24.70;1.00
2611;DHT22;5612;51.134;17.058;2023-05-10T13:29:59;25.20;1.00
2611;DHT22;5612;51.134;17.058;2023-05-10T13:32:28;25.20;1.00
2611;DHT22;5612;51.134;17.058;2023-05-10T13:34:58;25.30;1.00
2611;DHT22;5612;51.134;17.058;2023-05-10T13:37:28;25.40;1.00
2611;DHT22;5612;51.134;17.058;2023-05-10T13:39:57;25.50;1.00
2611;DHT22;5612;51.134;17.058;2023-05-10T13:42:27;25.00;1.00
2611;DHT22;5612;51.134;17.058;2023-05-10T13:44:57;24.50;1.00
2611;DHT22;5612;51.134;17.058;2023-05-10T13:47:39;24.00;1.00
2611;DHT22;5612;51.134;17.058;2023-05-10T13:50:12;25.10;1.00
2611;DHT22;5612;51.134;17.058;2023-05-10T13:52:41;26.30;1.00
2611;DHT22;5612;51.134;17.058;2023-05-10T13:55:13;26.20;1.00
2611;DHT22;5612;51.134;17.058;2023-05-10T13:57:47;26.20;1.00
2611;DHT22;5612;51.134;17.058;2023-05-10T14:00:17;26.00;1.00
2611;DHT22;5612;51.134;17.058;2023-05-10T14:02:46;25.70;1.00
2611;DHT22;5612;51.134;17.058;2023-05-10T14:05:16;25.50;1.00
2611;DHT22;5612;51.134;17.058;2023-05-10T14:07:52;25.10;1.00
2611;DHT22;5612;51.134;17.058;2023-05-10T14:10:21;24.60;1.00
2611;DHT22;5612;51.134;17.058;2023-05-10T14:12:51;24.70;1.00
2611;DHT22;5612;51.134;17.058;2023-05-10T14:15:20;25.00;1.00
2611;DHT22;5612;51.134;17.058;2023-05-10T14:17:49;25.60;1.00
2611;DHT22;5612;51.134;17.058;2023-05-10T14:20:18;25.70;1.00
2611;DHT22;5612;51.134;17.058;2023-05-10T14:22:47;25.40;1.00
2611;DHT22;5612;51.134;17.058;2023-05-10T14:25:16;24.80;1.00
2611;DHT22;5612;51.134;17.058;2023-05-10T14:27:46;24.90;1.00
2611;DHT22;5612;51.134;17.058;2023-05-10T14:30:19;24.80;1.00
2611;DHT22;5612;51.134;17.058;2023-05-10T14:32:48;24.70;1.00
2611;DHT22;5612;51.134;17.058;2023-05-10T14:35:17;24.40;1.00
2611;DHT22;5612;51.134;17.058;2023-05-10T14:37:46;24.10;1.00
2611;DHT22;5612;51.134;17.058;2023-05-10T14:40:16;24.40;1.00
2611;DHT22;5612;51.134;17.058;2023-05-10T14:42:46;25.10;1.00
2611;DHT22;5612;51.134;17.058;2023-05-10T14:45:15;26.00;1.00
2611;DHT22;5612;51.134;17.058;2023-05-10T14:47:45;25.80;1.00
2611;DHT22;5612;51.134;17.058;2023-05-10T14:50:14;26.00;1.00
2611;DHT22;5612;51.134;17.058;2023-05-10T14:53:02;26.00;1.00
2611;DHT22;5612;51.134;17.058;2023-05-10T14:55:30;26.30;1.00
2611;DHT22;5612;51.134;17.058;2023-05-10T14:57:59;26.10;1.00
2611;DHT22;5612;51.134;17.058;2023-05-10T15:00:29;25.30;1.00
2611;DHT22;5612;51.134;17.058;2023-05-10T15:03:01;24.30;1.00
2611;DHT22;5612;51.134;17.058;2023-05-10T15:05:31;23.80;1.00
2611;DHT22;5612;51.134;17.058;2023-05-10T15:08:00;23.40;1.00
2611;DHT22;5612;51.134;17.058;2023-05-10T15:10:29;23.20;1.00
2611;DHT22;5612;51.134;17.058;2023-05-10T15:13:00;23.40;1.00
2611;DHT22;5612;51.134;17.058;2023-05-10T15:15:29;23.50;1.00
2611;DHT22;5612;51.134;17.058;2023-05-10T15:17:58;23.70;1.00
2611;DHT22;5612;51.134;17.058;2023-05-10T15:20:28;24.00;1.00
2611;DHT22;5612;51.134;17.058;2023-05-10T15:22:57;24.30;1.00
2611;DHT22;5612;51.134;17.058;2023-05-10T15:25:25;24.00;1.00
2611;DHT22;5612;51.134;17.058;2023-05-10T15:27:55;23.90;1.00
2611;DHT22;5612;51.134;17.058;2023-05-10T15:30:24;23.60;1.00
2611;DHT22;5612;51.134;17.058;2023-05-10T15:32:53;23.40;1.00
2611;DHT22;5612;51.134;17.058;2023-05-10T15:35:21;23.20;1.00
2611;DHT22;5612;51.134;17.058;2023-05-10T15:37:51;23.00;1.00
2611;DHT22;5612;51.134;17.058;2023-05-10T15:40:20;22.60;1.00
2611;DHT22;5612;51.134;17.058;2023-05-10T15:42:50;22.30;1.00
2611;DHT22;5612;51.134;17.058;2023-05-10T15:45:19;22.10;1.00
2611;DHT22;5612;51.134;17.058;2023-05-10T15:47:48;22.30;1.00
2611;DHT22;5612;51.134;17.058;2023-05-10T15:50:17;22.40;1.00
2611;DHT22;5612;51.134;17.058;2023-05-10T15:52:47;22.60;1.00
2611;DHT22;5612;51.134;17.058;2023-05-10T15:55:17;22.30;1.00
2611;DHT22;5612;51.134;17.058;2023-05-10T15:57:46;22.30;1.00
2611;DHT22;5612;51.134;17.058;2023-05-10T16:00:16;22.30;1.00
2611;DHT22;5612;51.134;17.058;2023-05-10T16:02:45;22.10;1.00
2611;DHT22;5612;51.134;17.058;2023-05-10T16:05:19;22.20;1.00
2611;DHT22;5612;51.134;17.058;2023-05-10T16:07:48;22.30;1.00
2611;DHT22;5612;51.134;17.058;2023-05-10T16:10:19;22.30;1.00
2611;DHT22;5612;51.134;17.058;2023-05-10T16:12:48;22.40;1.00
2611;DHT22;5612;51.134;17.058;2023-05-10T16:15:19;22.70;1.00
2611;DHT22;5612;51.134;17.058;2023-05-10T16:17:48;22.80;1.00
2611;DHT22;5612;51.134;17.058;2023-05-10T16:20:17;22.90;1.00
2611;DHT22;5612;51.134;17.058;2023-05-10T16:22:47;22.80;1.00
2611;DHT22;5612;51.134;17.058;2023-05-10T16:25:16;22.70;1.00
2611;DHT22;5612;51.134;17.058;2023-05-10T16:27:47;22.60;1.00
2611;DHT22;5612;51.134;17.058;2023-05-10T16:30:17;22.50;1.00
2611;DHT22;5612;51.134;17.058;2023-05-10T16:32:48;22.50;1.00
2611;DHT22;5612;51.134;17.058;2023-05-10T16:35:17;22.60;1.00
2611;DHT22;5612;51.134;17.058;2023-05-10T16:37:45;22.60;1.00